Time;durP1;ratioP1;P1;durP2;ratioP2;P2;SDS_P1;SDS_P2;PMS_P1;PMS_P2;Temp;Humidity;BMP_temperature;BMP_pressure;BME280_temperature;BME280_humidity;BME280_pressure;Samples;Min_cycle;Max_cycle;Signal;HPM_P1;HPM_P2
2022/09/14 00:01:19;;;;;;;9.60;2.15;;;25.40;99.90;;;;;;4936941;23;20333;-54
2022/09/14 00:03:45;;;;;;;10.82;1.52;;;25.40;99.90;;;;;;4934734;29;20820;-57
2022/09/14 00:06:13;;;;;;;7.55;1.60;;;25.40;99.90;;;;;;4934662;29;20040;-54
2022/09/14 00:08:40;;;;;;;11.15;4.10;;;25.30;99.90;;;;;;4934519;29;20163;-56
2022/09/14 00:11:10;;;;;;;7.32;2.20;;;25.30;99.90;;;;;;4934727;29;20083;-54
2022/09/14 00:13:38;;;;;;;9.15;1.70;;;25.30;99.90;;;;;;4934619;29;20118;-54
2022/09/14 00:16:05;;;;;;;;;;;25.30;99.90;;;;;;4935079;29;20049;-55
2022/09/14 00:18:31;;;;;;;10.73;1.58;;;25.20;99.90;;;;;;4934412;29;19915;-56
2022/09/14 00:21:02;;;;;;;11.23;2.22;;;25.20;99.90;;;;;;4933051;29;20407;-55
2022/09/14 00:23:28;;;;;;;10.07;1.83;;;25.20;99.90;;;;;;4934428;29;20083;-55
2022/09/14 00:25:54;;;;;;;7.07;1.85;;;25.10;99.90;;;;;;4934436;29;20114;-55
2022/09/14 00:28:20;;;;;;;8.80;1.73;;;25.10;99.90;;;;;;4934280;29;20059;-56
2022/09/14 00:30:46;;;;;;;10.70;1.77;;;25.10;99.90;;;;;;4934250;29;20058;-56
2022/09/14 00:33:12;;;;;;;8.30;2.00;;;25.10;99.90;;;;;;4933460;29;20023;-56
2022/09/14 00:35:38;;;;;;;9.93;2.17;;;25.10;99.90;;;;;;4933209;29;20032;-55
2022/09/14 00:38:05;;;;;;;10.95;1.55;;;25.10;99.90;;;;;;4934219;29;20032;-56
2022/09/14 00:40:31;;;;;;;14.43;2.22;;;25.10;99.90;;;;;;4934180;29;20027;-56
2022/09/14 00:42:56;;;;;;;7.72;1.52;;;25.20;99.90;;;;;;4934067;29;20024;-56
2022/09/14 00:45:24;;;;;;;10.73;1.92;;;25.20;99.90;;;;;;4934013;29;20028;-56
2022/09/14 00:47:51;;;;;;;;;;;25.20;99.90;;;;;;4934444;29;20087;-55
2022/09/14 00:50:17;;;;;;;9.80;1.83;;;25.20;99.90;;;;;;4933969;29;20335;-55
2022/09/14 00:52:47;;;;;;;7.25;2.28;;;25.10;99.90;;;;;;4934088;29;20058;-55
2022/09/14 00:55:17;;;;;;;19.95;3.33;;;25.10;99.90;;;;;;4934259;29;20282;-56
2022/09/14 00:57:47;;;;;;;10.05;2.13;;;25.00;99.90;;;;;;4933899;29;20039;-56
2022/09/14 01:00:16;;;;;;;12.60;2.92;;;25.00;99.90;;;;;;4946079;23;20048;-51
2022/09/14 01:02:43;;;;;;;13.57;2.03;;;25.00;99.90;;;;;;4933953;29;20084;-50
2022/09/14 01:05:09;;;;;;;10.73;1.90;;;25.00;99.90;;;;;;4934187;29;20028;-49
2022/09/14 01:07:44;;;;;;;15.35;2.13;;;25.00;99.90;;;;;;4933831;29;20518;-50
2022/09/14 01:10:25;;;;;;;15.60;3.28;;;25.00;99.90;;;;;;4934043;29;20103;-54
2022/09/14 01:13:02;;;;;;;11.20;2.53;;;25.00;99.90;;;;;;4933863;29;20028;-51
2022/09/14 01:16:06;;;;;;;12.00;1.88;;;24.90;99.90;;;;;;4933801;29;20019;-51
2022/09/14 01:18:50;;;;;;;8.55;1.65;;;24.90;99.90;;;;;;4904079;29;20480;-51
2022/09/14 01:21:22;;;;;;;12.43;2.15;;;24.90;99.90;;;;;;4933840;29;20850;-51
2022/09/14 01:23:54;;;;;;;12.90;3.13;;;24.90;99.90;;;;;;4933763;29;20119;-51
2022/09/14 01:26:56;;;;;;;12.07;2.63;;;24.90;99.90;;;;;;4933745;29;20031;-51
2022/09/14 01:29:52;;;;;;;16.98;2.28;;;24.80;99.90;;;;;;4932506;29;20031;-51
2022/09/14 01:32:27;;;;;;;15.07;2.03;;;24.80;99.90;;;;;;4933631;29;20028;-50
2022/09/14 01:35:04;;;;;;;14.85;3.00;;;24.80;99.90;;;;;;4933567;29;20400;-50
2022/09/14 01:37:41;;;;;;;17.83;3.08;;;24.70;99.90;;;;;;4933510;29;20496;-51
2022/09/14 01:40:27;;;;;;;16.63;2.67;;;24.70;99.90;;;;;;4932457;29;20131;-50
2022/09/14 01:43:13;;;;;;;12.18;2.13;;;24.70;99.90;;;;;;4933657;29;20031;-50
2022/09/14 01:45:48;;;;;;;12.85;3.10;;;24.60;99.90;;;;;;4936104;29;20036;-49
2022/09/14 01:48:17;;;;;;;14.95;3.05;;;24.60;99.90;;;;;;4936013;29;20059;-49
2022/09/14 01:50:46;;;;;;;13.07;2.33;;;24.60;99.90;;;;;;4937293;29;20395;-50
2022/09/14 01:53:23;;;;;;;13.70;2.35;;;24.50;99.90;;;;;;4936051;29;20039;-50
2022/09/14 01:56:04;;;;;;;11.52;2.17;;;24.60;99.90;;;;;;4921210;29;20031;-50
2022/09/14 01:58:40;;;;;;;13.05;2.50;;;24.50;99.90;;;;;;4936975;29;20102;-51
2022/09/14 02:01:10;;;;;;;11.68;2.45;;;24.50;99.90;;;;;;4948256;23;20064;-53
2022/09/14 02:03:43;;;;;;;16.05;2.63;;;24.50;99.90;;;;;;4936932;29;20032;-55
2022/09/14 02:06:47;;;;;;;11.90;2.25;;;24.50;99.90;;;;;;4936823;29;20027;-55
2022/09/14 02:09:18;;;;;;;11.25;2.90;;;24.50;99.90;;;;;;4924296;29;20041;-53
2022/09/14 02:11:44;;;;;;;13.45;2.45;;;24.50;99.90;;;;;;4936836;29;20031;-55
2022/09/14 02:14:10;;;;;;;15.50;2.70;;;24.50;99.90;;;;;;4936743;29;20024;-55
2022/09/14 02:16:36;;;;;;;13.05;2.58;;;24.50;99.90;;;;;;4936517;29;20023;-55
2022/09/14 02:19:02;;;;;;;18.73;3.20;;;24.50;99.90;;;;;;4936465;29;20024;-55
2022/09/14 02:21:32;;;;;;;9.30;1.95;;;24.50;99.90;;;;;;4936574;29;20035;-55
2022/09/14 02:23:59;;;;;;;12.18;2.53;;;24.50;99.90;;;;;;4936494;29;20115;-54
2022/09/14 02:26:25;;;;;;;9.30;1.98;;;24.50;99.90;;;;;;4936486;29;20515;-55
2022/09/14 02:28:55;;;;;;;16.10;1.90;;;24.50;99.90;;;;;;4936412;29;20298;-55
2022/09/14 02:31:32;;;;;;;10.77;2.20;;;24.50;99.90;;;;;;4936493;29;20032;-55
2022/09/14 02:34:04;;;;;;;13.20;2.42;;;24.50;99.90;;;;;;4936468;29;20030;-55
2022/09/14 02:37:14;;;;;;;10.13;1.70;;;24.50;99.90;;;;;;4934878;29;20040;-55
2022/09/14 02:39:59;;;;;;;9.57;1.90;;;24.50;99.90;;;;;;4921084;29;20028;-54
2022/09/14 02:43:12;;;;;;;9.60;2.08;;;24.50;99.90;;;;;;4936027;29;20518;-54
2022/09/14 02:45:49;;;;;;;13.10;2.45;;;24.40;99.90;;;;;;4891518;29;20043;-55
2022/09/14 02:48:27;;;;;;;11.32;1.90;;;24.40;99.90;;;;;;4936270;29;20031;-55
2022/09/14 02:51:07;;;;;;;8.82;1.77;;;24.40;99.90;;;;;;4935899;29;20511;-54
2022/09/14 02:53:38;;;;;;;15.10;2.78;;;24.40;99.90;;;;;;4934669;29;20111;-55
2022/09/14 02:56:07;;;;;;;11.18;2.10;;;24.50;99.90;;;;;;4935175;29;20047;-55
2022/09/14 02:58:39;;;;;;;8.55;1.83;;;24.50;99.90;;;;;;4935919;29;20118;-55
2022/09/14 03:01:06;;;;;;;7.05;1.90;;;24.50;99.90;;;;;;4947392;23;20060;-48
2022/09/14 03:03:32;;;;;;;11.27;1.65;;;24.50;99.90;;;;;;4935962;29;20114;-48
2022/09/14 03:05:58;;;;;;;8.60;1.50;;;24.50;99.90;;;;;;4935799;29;20080;-48
2022/09/14 03:08:27;;;;;;;12.32;2.20;;;24.50;99.90;;;;;;4935677;29;20484;-48
2022/09/14 03:10:53;;;;;;;9.85;1.50;;;24.50;99.90;;;;;;4935611;29;20110;-48
2022/09/14 03:13:19;;;;;;;9.07;1.98;;;24.50;99.90;;;;;;4936192;29;20408;-48
2022/09/14 03:15:45;;;;;;;10.40;2.88;;;24.50;99.90;;;;;;4935684;29;20028;-48
2022/09/14 03:18:11;;;;;;;11.52;1.55;;;24.60;99.90;;;;;;4935293;29;20186;-48
2022/09/14 03:20:37;;;;;;;6.28;1.30;;;24.60;99.90;;;;;;4935479;29;20035;-48
2022/09/14 03:23:04;;;;;;;11.15;2.00;;;24.70;99.90;;;;;;4935355;29;20472;-49
2022/09/14 03:25:34;;;;;;;7.18;2.08;;;24.60;99.90;;;;;;4935175;29;20476;-48
2022/09/14 03:28:00;;;;;;;8.68;1.42;;;24.70;99.90;;;;;;4935382;29;20392;-48
2022/09/14 03:30:26;;;;;;;10.30;1.88;;;24.70;99.90;;;;;;4935239;29;20016;-48
2022/09/14 03:32:52;;;;;;;6.00;1.10;;;24.70;99.90;;;;;;4935095;29;20028;-48
2022/09/14 03:35:18;;;;;;;8.18;1.60;;;24.70;99.90;;;;;;4935616;29;20028;-48
2022/09/14 03:37:45;;;;;;;8.45;1.77;;;24.70;99.90;;;;;;4933833;29;20036;-49
2022/09/14 03:40:14;;;;;;;15.57;2.80;;;24.70;99.90;;;;;;4935117;29;20593;-48
2022/09/14 03:42:44;;;;;;;9.60;1.85;;;24.70;99.90;;;;;;4935009;29;20484;-48
2022/09/14 03:45:15;;;;;;;7.57;1.63;;;24.70;99.90;;;;;;4934890;29;20098;-48
2022/09/14 03:47:42;;;;;;;8.68;1.70;;;24.60;99.90;;;;;;4934937;29;20019;-48
2022/09/14 03:50:09;;;;;;;8.95;1.75;;;24.60;99.90;;;;;;4934993;29;20024;-48
2022/09/14 03:52:36;;;;;;;8.93;2.20;;;24.60;99.90;;;;;;4934992;29;20043;-46
2022/09/14 03:55:03;;;;;;;10.05;1.60;;;24.60;99.90;;;;;;4934998;29;20020;-46
2022/09/14 03:57:29;;;;;;;5.13;1.58;;;24.60;99.90;;;;;;4934774;29;20040;-47
2022/09/14 03:59:55;;;;;;;9.45;1.67;;;24.60;99.90;;;;;;4946754;23;20039;-50
2022/09/14 04:02:21;;;;;;;9.20;2.40;;;24.60;99.90;;;;;;4935397;29;20420;-50
2022/09/14 04:04:47;;;;;;;7.72;1.73;;;24.60;99.90;;;;;;4934782;29;20028;-50
2022/09/14 04:07:14;;;;;;;8.98;1.88;;;24.50;99.90;;;;;;4934676;29;20028;-49
2022/09/14 04:09:40;;;;;;;8.55;1.48;;;24.50;99.90;;;;;;4934596;29;20116;-50
2022/09/14 04:12:06;;;;;;;9.60;2.05;;;24.50;99.90;;;;;;4934621;29;20036;-49
2022/09/14 04:14:32;;;;;;;8.73;1.60;;;24.50;99.90;;;;;;4934543;29;20456;-50
2022/09/14 04:16:58;;;;;;;9.35;1.98;;;24.50;99.90;;;;;;4934297;29;20122;-49
2022/09/14 04:19:24;;;;;;;9.70;1.90;;;24.50;99.90;;;;;;4934684;29;20028;-50
2022/09/14 04:21:50;;;;;;;11.65;2.03;;;24.50;99.90;;;;;;4934540;29;20023;-48
2022/09/14 04:24:15;;;;;;;9.90;1.98;;;24.50;99.90;;;;;;4934374;29;20505;-49
2022/09/14 04:26:42;;;;;;;17.92;2.28;;;24.50;99.90;;;;;;4934373;29;20053;-49
2022/09/14 04:29:09;;;;;;;10.97;2.00;;;24.40;99.90;;;;;;4934332;29;20028;-50
2022/09/14 04:31:35;;;;;;;9.13;1.92;;;24.40;99.90;;;;;;4934225;29;20031;-49
2022/09/14 04:34:01;;;;;;;6.57;1.50;;;24.40;99.90;;;;;;4932919;29;20033;-48
2022/09/14 04:36:29;;;;;;;9.93;1.85;;;24.40;99.90;;;;;;4934081;29;20381;-50
2022/09/14 04:38:57;;;;;;;6.53;1.75;;;24.30;99.90;;;;;;4934435;29;20107;-49
2022/09/14 04:41:23;;;;;;;11.00;2.00;;;24.30;99.90;;;;;;4934366;29;20494;-51
2022/09/14 04:43:50;;;;;;;13.13;2.45;;;24.20;99.90;;;;;;4934058;29;20040;-50
2022/09/14 04:46:22;;;;;;;9.93;1.88;;;24.20;99.90;;;;;;4934086;29;20160;-53
2022/09/14 04:48:48;;;;;;;15.98;2.28;;;24.20;99.90;;;;;;4934182;29;20128;-54
2022/09/14 04:51:16;;;;;;;10.02;1.67;;;24.20;99.90;;;;;;4934174;29;20084;-54
2022/09/14 04:53:44;;;;;;;14.15;2.72;;;24.20;99.90;;;;;;4933987;29;20531;-53
2022/09/14 04:56:11;;;;;;;13.68;2.50;;;24.20;99.90;;;;;;4932632;29;20123;-54
2022/09/14 04:58:41;;;;;;;13.77;2.30;;;24.20;99.90;;;;;;4934029;29;20064;-52
2022/09/14 05:01:13;;;;;;;12.35;2.38;;;24.20;99.90;;;;;;4933767;29;20048;-53
2022/09/14 05:03:39;;;;;;;10.75;2.70;;;24.30;99.90;;;;;;4934054;29;20027;-53
2022/09/14 05:06:13;;;;;;;14.32;2.08;;;24.30;99.90;;;;;;4934124;29;20027;-54
2022/09/14 05:08:39;;;;;;;12.30;2.55;;;24.30;99.90;;;;;;4934117;29;20031;-53
2022/09/14 05:11:07;;;;;;;12.25;3.15;;;24.30;99.90;;;;;;4933913;29;20030;-53
2022/09/14 05:13:33;;;;;;;;;;;24.30;99.90;;;;;;4934371;29;20403;-53
2022/09/14 05:16:17;;;;;;;17.70;2.33;;;24.30;99.90;;;;;;4933843;29;20252;-54
2022/09/14 05:18:43;;;;;;;10.88;2.20;;;24.30;99.90;;;;;;4933806;29;20044;-53
2022/09/14 05:21:11;;;;;;;10.50;2.15;;;24.30;99.90;;;;;;4937129;29;20485;-53
2022/09/14 05:23:37;;;;;;;13.50;2.70;;;24.30;99.90;;;;;;4937621;29;20391;-53
2022/09/14 05:26:04;;;;;;;13.38;2.50;;;24.30;99.90;;;;;;4937710;29;20046;-53
2022/09/14 05:28:30;;;;;;;13.75;2.22;;;24.30;99.90;;;;;;4936278;29;20082;-53
2022/09/14 05:30:56;;;;;;;11.68;2.97;;;24.30;99.90;;;;;;4937490;29;20040;-53
2022/09/14 05:33:22;;;;;;;13.00;2.88;;;24.30;99.90;;;;;;4937355;29;20030;-53
2022/09/14 05:35:49;;;;;;;12.98;2.67;;;24.30;99.90;;;;;;4937243;29;20036;-54
2022/09/14 05:38:15;;;;;;;13.40;2.50;;;24.30;99.90;;;;;;4937378;29;20061;-54
2022/09/14 05:40:41;;;;;;;11.98;2.30;;;24.30;99.90;;;;;;4937304;29;20056;-54
2022/09/14 05:43:08;;;;;;;14.65;2.53;;;24.30;99.90;;;;;;4935963;29;20068;-54
2022/09/14 05:45:34;;;;;;;12.85;2.17;;;24.30;99.90;;;;;;4937221;29;20083;-54
2022/09/14 05:48:03;;;;;;;16.58;3.55;;;24.30;99.90;;;;;;4937263;29;20125;-53
2022/09/14 05:50:30;;;;;;;17.45;3.30;;;24.30;99.90;;;;;;4937286;29;20035;-54
2022/09/14 05:52:56;;;;;;;15.25;2.92;;;24.30;99.90;;;;;;4937390;29;20107;-54
2022/09/14 05:55:21;;;;;;;7.20;1.65;;;24.30;99.90;;;;;;4936984;29;20606;-54
2022/09/14 05:57:50;;;;;;;13.32;2.90;;;24.30;99.90;;;;;;4935657;29;20396;-54
2022/09/14 06:00:18;;;;;;;14.10;2.30;;;24.30;99.90;;;;;;4936871;29;20055;-54
2022/09/14 06:02:48;;;;;;;13.35;3.72;;;24.30;99.90;;;;;;4937090;29;20160;-54
2022/09/14 06:05:15;;;;;;;14.88;2.85;;;24.30;99.90;;;;;;4936787;29;20039;-54
2022/09/14 06:07:41;;;;;;;13.02;2.42;;;24.30;99.90;;;;;;4936759;29;20035;-54
2022/09/14 06:10:07;;;;;;;8.68;2.10;;;24.30;99.90;;;;;;4935515;29;20027;-55
2022/09/14 06:12:33;;;;;;;7.13;1.83;;;24.30;99.90;;;;;;4936723;29;20016;-55
2022/09/14 06:14:59;;;;;;;10.77;2.42;;;24.30;99.90;;;;;;4936806;29;20047;-54
2022/09/14 06:17:24;;;;;;;12.00;2.72;;;24.30;99.90;;;;;;4936409;29;20122;-54
2022/09/14 06:19:50;;;;;;;14.60;2.78;;;24.20;99.90;;;;;;4936554;29;20054;-54
2022/09/14 06:22:16;;;;;;;13.05;2.17;;;24.20;99.90;;;;;;4935088;29;20078;-54
2022/09/14 06:24:41;;;;;;;11.98;2.60;;;24.30;99.90;;;;;;4934995;29;20032;-54
2022/09/14 06:27:11;;;;;;;14.05;2.97;;;24.30;99.90;;;;;;4936303;29;20032;-55
2022/09/14 06:29:37;;;;;;;14.23;3.83;;;24.30;99.90;;;;;;4936197;29;20027;-54
2022/09/14 06:32:03;;;;;;;9.88;2.08;;;24.30;99.90;;;;;;4935187;29;20495;-54
2022/09/14 06:34:29;;;;;;;9.95;1.92;;;24.30;99.90;;;;;;4936394;29;20527;-54
2022/09/14 06:36:55;;;;;;;14.60;3.13;;;24.30;99.90;;;;;;4936090;29;20393;-55
2022/09/14 06:39:21;;;;;;;16.45;3.35;;;24.30;99.90;;;;;;4936245;29;20523;-55
2022/09/14 06:41:47;;;;;;;17.85;3.03;;;24.30;99.90;;;;;;4936055;29;20107;-55
2022/09/14 06:44:13;;;;;;;19.55;4.05;;;24.30;99.90;;;;;;4936080;29;20482;-54
2022/09/14 06:46:39;;;;;;;15.48;2.78;;;24.30;99.90;;;;;;4936047;29;20139;-55
2022/09/14 06:49:08;;;;;;;16.00;3.70;;;24.30;99.90;;;;;;4935924;29;20067;-54
2022/09/14 06:51:39;;;;;;;17.42;3.40;;;24.30;99.90;;;;;;4936211;29;20369;-54
2022/09/14 06:54:05;;;;;;;11.68;2.88;;;24.20;99.90;;;;;;4935973;29;20421;-54
2022/09/14 06:56:34;;;;;;;15.88;3.13;;;24.30;99.90;;;;;;4936065;29;20115;-57
2022/09/14 06:58:59;;;;;;;35.55;5.25;;;24.30;99.90;;;;;;4934690;29;20039;-54
2022/09/14 07:01:26;;;;;;;17.83;3.85;;;24.30;99.90;;;;;;4934241;29;20111;-54
2022/09/14 07:03:53;;;;;;;13.52;3.67;;;24.30;99.90;;;;;;4935595;29;20032;-54
2022/09/14 07:06:31;;;;;;;11.20;2.85;;;24.30;99.90;;;;;;4935644;29;20059;-55
2022/09/14 07:08:57;;;;;;;15.32;3.55;;;24.20;99.90;;;;;;4935513;29;20051;-54
2022/09/14 07:11:25;;;;;;;13.63;3.38;;;24.20;99.90;;;;;;4935408;29;20024;-54
2022/09/14 07:13:53;;;;;;;16.63;2.70;;;24.20;99.90;;;;;;4934263;29;20044;-55
2022/09/14 07:16:20;;;;;;;36.42;5.15;;;24.20;99.90;;;;;;4935357;29;20023;-55
2022/09/14 07:18:46;;;;;;;20.60;3.43;;;24.20;99.90;;;;;;4935479;29;20032;-54
2022/09/14 07:21:15;;;;;;;20.20;4.15;;;24.20;99.90;;;;;;4935374;29;20265;-54
2022/09/14 07:23:43;;;;;;;19.08;3.67;;;24.10;99.90;;;;;;4935276;29;20035;-55
2022/09/14 07:26:18;;;;;;;13.32;2.85;;;24.20;99.90;;;;;;4935153;29;20024;-55
2022/09/14 07:28:47;;;;;;;21.50;3.78;;;24.10;99.90;;;;;;4935202;29;20031;-54
2022/09/14 07:31:15;;;;;;;15.80;4.05;;;24.10;99.90;;;;;;4935117;29;20020;-54
2022/09/14 07:33:41;;;;;;;40.88;4.15;;;24.10;99.90;;;;;;4934961;29;20032;-54
2022/09/14 07:36:09;;;;;;;16.67;3.13;;;24.10;99.90;;;;;;4935109;29;20425;-55
2022/09/14 07:38:35;;;;;;;10.63;2.83;;;24.10;99.90;;;;;;4934992;29;20058;-55
2022/09/14 07:41:01;;;;;;;18.45;3.20;;;24.10;99.90;;;;;;4934954;29;20059;-54
2022/09/14 07:43:28;;;;;;;15.65;3.13;;;24.20;99.90;;;;;;4934674;29;20461;-55
2022/09/14 07:45:54;;;;;;;19.00;3.80;;;24.20;99.90;;;;;;4934955;29;20031;-55
2022/09/14 07:48:19;;;;;;;17.98;3.33;;;24.20;99.90;;;;;;4934838;29;20540;-55
2022/09/14 07:50:46;;;;;;;17.73;3.20;;;24.20;99.90;;;;;;4933458;29;20028;-54
2022/09/14 07:53:12;;;;;;;16.50;3.78;;;24.20;99.90;;;;;;4934582;29;20110;-55
2022/09/14 07:55:39;;;;;;;19.35;4.15;;;24.20;99.90;;;;;;4934971;29;20141;-55
2022/09/14 07:58:05;;;;;;;16.42;3.10;;;24.20;99.90;;;;;;4934993;29;20068;-55
2022/09/14 08:00:31;;;;;;;18.75;4.82;;;24.10;99.90;;;;;;4934443;29;20075;-54
2022/09/14 08:02:58;;;;;;;18.92;4.22;;;24.10;99.90;;;;;;4934645;29;20028;-55
2022/09/14 08:05:25;;;;;;;15.02;3.35;;;24.10;99.90;;;;;;4934746;29;20023;-56
2022/09/14 08:07:57;;;;;;;21.92;2.90;;;24.10;99.90;;;;;;4934478;29;20079;-55
2022/09/14 08:10:24;;;;;;;12.77;3.03;;;24.10;99.90;;;;;;4934558;29;20032;-55
2022/09/14 08:12:55;;;;;;;19.60;3.42;;;24.10;99.90;;;;;;4934538;29;20026;-55
2022/09/14 08:15:21;;;;;;;16.33;3.90;;;24.10;99.90;;;;;;4933176;29;20086;-55
2022/09/14 08:17:48;;;;;;;17.63;2.75;;;24.10;99.90;;;;;;4933970;29;20040;-54
2022/09/14 08:20:15;;;;;;;15.53;2.63;;;24.10;99.90;;;;;;4934263;29;20052;-54
2022/09/14 08:22:42;;;;;;;19.35;3.97;;;24.20;99.90;;;;;;4934140;29;20034;-54
2022/09/14 08:25:09;;;;;;;16.33;2.90;;;24.20;99.90;;;;;;4934398;29;20091;-53
2022/09/14 08:27:35;;;;;;;14.77;2.75;;;24.20;99.90;;;;;;4934239;29;20032;-54
2022/09/14 08:30:01;;;;;;;18.65;3.97;;;24.20;99.90;;;;;;4934161;29;20488;-56
2022/09/14 08:32:26;;;;;;;25.65;4.18;;;24.20;99.90;;;;;;4934195;29;20031;-55
2022/09/14 08:34:52;;;;;;;25.25;3.38;;;24.20;99.90;;;;;;4934239;29;20048;-55
2022/09/14 08:37:18;;;;;;;19.38;2.88;;;24.20;99.90;;;;;;4932775;29;20042;-55
2022/09/14 08:39:44;;;;;;;11.23;2.60;;;24.20;99.90;;;;;;4933962;29;20082;-55
2022/09/14 08:42:18;;;;;;;15.93;3.53;;;24.30;99.90;;;;;;4934298;29;20396;-55
2022/09/14 08:44:58;;;;;;;20.17;2.97;;;24.30;99.90;;;;;;4934099;29;20028;-55
2022/09/14 08:47:33;;;;;;;12.40;2.90;;;24.30;99.90;;;;;;4934086;29;20472;-55
2022/09/14 08:50:05;;;;;;;17.38;3.05;;;24.40;99.90;;;;;;4932666;29;20110;-55
2022/09/14 08:52:43;;;;;;;9.45;2.53;;;24.40;99.90;;;;;;4932546;29;20028;-55
2022/09/14 08:55:26;;;;;;;15.57;2.97;;;24.50;99.90;;;;;;4933425;29;20055;-53
2022/09/14 08:58:07;;;;;;;12.80;2.55;;;24.50;99.90;;;;;;4933731;29;20042;-55
2022/09/14 09:00:50;;;;;;;9.20;2.20;;;24.60;99.90;;;;;;4933805;29;20098;-55
2022/09/14 09:03:38;;;;;;;12.20;2.72;;;24.60;99.90;;;;;;4933864;29;20039;-55
2022/09/14 09:06:22;;;;;;;13.35;3.28;;;24.70;99.90;;;;;;4933724;29;20038;-54
2022/09/14 09:08:54;;;;;;;18.25;2.72;;;24.80;99.90;;;;;;4933633;29;20360;-53
2022/09/14 09:11:24;;;;;;;13.23;2.05;;;24.90;99.90;;;;;;4933857;29;20556;-54
2022/09/14 09:13:51;;;;;;;14.45;2.67;;;24.90;99.90;;;;;;4933666;29;20035;-53
2022/09/14 09:16:21;;;;;;;11.77;2.53;;;25.00;99.90;;;;;;4933822;29;20373;-54
2022/09/14 09:19:01;;;;;;;9.60;2.30;;;25.00;99.90;;;;;;4933810;29;20282;-54
2022/09/14 09:21:47;;;;;;;20.50;2.83;;;25.00;99.90;;;;;;4933506;29;20036;-54
2022/09/14 09:24:25;;;;;;;15.98;3.40;;;25.00;99.90;;;;;;4934533;29;20028;-54
2022/09/14 09:26:51;;;;;;;12.25;2.38;;;25.00;99.90;;;;;;4933696;29;20024;-53
2022/09/14 09:29:17;;;;;;;10.90;2.42;;;25.00;99.90;;;;;;4933748;29;20480;-54
2022/09/14 09:31:48;;;;;;;17.27;3.67;;;25.00;99.90;;;;;;4933778;29;20408;-54
2022/09/14 09:34:16;;;;;;;13.95;2.92;;;25.00;99.90;;;;;;4933843;29;20024;-54
2022/09/14 09:36:48;;;;;;;15.23;4.05;;;25.00;99.90;;;;;;4933702;29;20047;-55
2022/09/14 09:39:14;;;;;;;15.07;6.00;;;25.00;99.90;;;;;;4933829;29;20384;-53
2022/09/14 09:41:53;;;;;;;10.60;4.38;;;25.00;99.90;;;;;;4933692;29;20020;-56
2022/09/14 09:44:19;;;;;;;15.10;5.97;;;25.10;99.90;;;;;;4933446;29;20543;-54
2022/09/14 09:46:52;;;;;;;15.25;5.88;;;25.10;99.90;;;;;;4933383;29;20020;-51
2022/09/14 09:49:27;;;;;;;13.73;4.05;;;25.20;99.90;;;;;;4933351;29;20042;-52
2022/09/14 09:51:53;;;;;;;20.05;7.80;;;25.20;99.90;;;;;;4933242;29;20048;-53
2022/09/14 09:54:29;;;;;;;12.98;3.13;;;25.30;99.90;;;;;;4933239;29;20035;-54
2022/09/14 09:57:01;;;;;;;17.58;6.45;;;25.30;99.90;;;;;;4933185;29;20028;-54
2022/09/14 09:59:30;;;;;;;17.92;5.45;;;25.30;99.90;;;;;;4933099;29;20078;-53
2022/09/14 10:02:20;;;;;;;19.48;9.65;;;25.40;99.90;;;;;;4933092;29;20059;-53
2022/09/14 10:04:57;;;;;;;13.13;4.90;;;25.40;99.90;;;;;;4933309;29;20043;-54
2022/09/14 10:07:23;;;;;;;15.15;4.47;;;25.40;99.90;;;;;;4936476;29;20027;-52
2022/09/14 10:10:10;;;;;;;14.65;4.50;;;25.40;99.90;;;;;;4936399;29;20032;-54
2022/09/14 10:12:38;;;;;;;13.57;5.07;;;25.40;99.90;;;;;;4936315;29;20040;-53
2022/09/14 10:15:14;;;;;;;20.55;8.98;;;25.40;99.90;;;;;;4936217;29;20067;-55
2022/09/14 10:17:40;;;;;;;19.77;8.57;;;25.40;99.90;;;;;;4936252;29;20165;-54
2022/09/14 10:20:19;;;;;;;15.25;5.88;;;25.40;99.90;;;;;;4936072;29;20066;-54
2022/09/14 10:22:45;;;;;;;17.38;9.77;;;25.50;99.90;;;;;;4936501;29;20449;-54
2022/09/14 10:25:13;;;;;;;23.83;10.20;;;25.50;99.90;;;;;;4936309;29;20055;-54
2022/09/14 10:27:54;;;;;;;14.98;7.63;;;25.50;99.90;;;;;;4936467;29;20040;-55
2022/09/14 10:30:33;;;;;;;19.42;7.22;;;25.50;99.90;;;;;;4936207;29;20147;-53
2022/09/14 10:33:05;;;;;;;12.40;5.10;;;25.50;99.90;;;;;;4936233;29;20031;-53
2022/09/14 10:36:01;;;;;;;11.02;3.38;;;25.50;99.90;;;;;;4936211;29;20124;-56
2022/09/14 10:38:31;;;;;;;14.43;2.30;;;25.60;99.90;;;;;;4936128;29;20131;-55
2022/09/14 10:41:30;;;;;;;17.88;2.55;;;25.70;99.90;;;;;;4936147;29;20050;-56
2022/09/14 10:44:24;;;;;;;11.32;2.80;;;25.70;99.90;;;;;;4936029;29;20028;-55
2022/09/14 10:47:10;;;;;;;8.75;2.50;;;25.70;99.90;;;;;;4935970;29;20036;-54
2022/09/14 10:49:58;;;;;;;9.43;2.63;;;25.80;99.90;;;;;;4925501;29;20392;-53
2022/09/14 10:52:43;;;;;;;9.55;2.20;;;25.80;99.90;;;;;;4935761;29;20020;-54
2022/09/14 10:55:24;;;;;;;9.20;2.42;;;25.90;99.90;;;;;;4935780;29;20032;-55
2022/09/14 10:58:08;;;;;;;13.13;2.50;;;25.90;99.90;;;;;;4935699;29;20467;-54
2022/09/14 11:01:04;;;;;;;9.32;2.17;;;26.00;99.90;;;;;;4935454;29;20163;-53
2022/09/14 11:03:45;;;;;;;8.15;1.83;;;26.10;99.90;;;;;;4935485;29;20070;-54
2022/09/14 11:06:13;;;;;;;9.55;2.55;;;26.20;99.90;;;;;;4935692;29;20024;-55
2022/09/14 11:08:45;;;;;;;11.43;2.20;;;26.20;99.90;;;;;;4931279;29;20469;-53
2022/09/14 11:11:16;;;;;;;13.55;2.50;;;26.30;99.90;;;;;;4928878;29;20032;-54
2022/09/14 11:13:45;;;;;;;14.65;2.70;;;26.30;99.90;;;;;;4925224;29;20031;-55
2022/09/14 11:16:14;;;;;;;13.23;2.90;;;26.30;99.90;;;;;;4926442;29;20036;-49
2022/09/14 11:19:12;;;;;;;12.85;2.85;;;26.40;99.90;;;;;;4934711;29;20094;-50
2022/09/14 11:21:50;;;;;;;10.30;3.33;;;26.40;99.90;;;;;;4934816;29;20063;-50
2022/09/14 11:24:23;;;;;;;9.40;2.42;;;26.40;99.90;;;;;;4935561;29;20090;-48
2022/09/14 11:27:00;;;;;;;13.05;2.38;;;26.40;99.90;;;;;;4935361;29;20031;-50
2022/09/14 11:29:48;;;;;;;9.20;2.38;;;26.50;99.90;;;;;;4935142;29;20078;-50
2022/09/14 11:32:20;;;;;;;10.23;2.50;;;26.50;99.90;;;;;;4935288;29;20414;-50
2022/09/14 11:34:56;;;;;;;12.57;3.20;;;26.50;99.90;;;;;;4935031;29;20027;-54
2022/09/14 11:37:51;;;;;;;8.25;2.30;;;26.50;99.90;;;;;;4935006;29;20067;-51
2022/09/14 11:40:33;;;;;;;8.77;2.45;;;26.60;99.90;;;;;;4910437;29;20392;-53
2022/09/14 11:43:10;;;;;;;10.50;2.25;;;26.60;99.90;;;;;;4934897;29;20039;-53
2022/09/14 11:45:47;;;;;;;10.75;2.38;;;26.60;99.90;;;;;;4935024;29;20492;-53
2022/09/14 11:48:33;;;;;;;12.48;2.50;;;26.60;99.90;;;;;;4934895;29;20481;-50
2022/09/14 11:51:18;;;;;;;10.40;2.60;;;26.70;99.90;;;;;;4934771;29;20059;-50
2022/09/14 11:53:45;;;;;;;9.15;2.47;;;26.80;99.90;;;;;;4934732;29;20043;-50
2022/09/14 11:56:25;;;;;;;11.57;2.53;;;26.80;99.90;;;;;;4934808;29;20028;-51
2022/09/14 11:58:57;;;;;;;10.50;2.78;;;26.90;99.90;;;;;;4934910;29;20046;-50
2022/09/14 12:01:28;;;;;;;14.38;4.47;;;26.90;99.90;;;;;;4933447;29;20130;-50
2022/09/14 12:03:59;;;;;;;11.30;3.60;;;26.90;99.90;;;;;;4934463;29;20027;-51
2022/09/14 12:06:34;;;;;;;8.88;2.65;;;27.00;99.90;;;;;;4934536;29;20384;-50
2022/09/14 12:09:19;;;;;;;12.40;4.68;;;27.00;99.90;;;;;;4934530;29;20084;-52
2022/09/14 12:11:55;;;;;;;11.30;3.00;;;27.00;99.90;;;;;;4934313;29;20106;-51
2022/09/14 12:14:29;;;;;;;11.18;3.50;;;27.00;99.90;;;;;;4934606;29;20035;-54
2022/09/14 12:17:21;;;;;;;12.15;5.68;;;27.10;99.90;;;;;;4934318;29;20032;-51
2022/09/14 12:19:52;;;;;;;11.18;4.38;;;27.20;99.90;;;;;;4934459;29;20023;-49
2022/09/14 12:22:30;;;;;;;17.33;7.80;;;27.20;99.90;;;;;;4934597;29;20024;-52
2022/09/14 12:25:15;;;;;;;;;;;27.20;99.90;;;;;;4935005;29;20066;-52
2022/09/14 12:27:42;;;;;;;11.68;3.42;;;27.20;99.90;;;;;;4934110;29;19930;-53
2022/09/14 12:30:35;;;;;;;14.77;6.10;;;27.20;99.90;;;;;;4933470;29;20360;-52
2022/09/14 12:33:02;;;;;;;16.95;8.57;;;27.20;99.90;;;;;;4934131;29;20024;-51
2022/09/14 12:35:31;;;;;;;;;;;27.20;99.90;;;;;;4934575;29;20063;-49
2022/09/14 12:37:57;;;;;;;19.63;7.38;;;27.20;99.90;;;;;;4934076;29;19925;-49
2022/09/14 12:40:33;;;;;;;17.13;7.95;;;27.30;99.90;;;;;;4934209;29;20082;-49
2022/09/14 12:43:31;;;;;;;18.70;6.82;;;27.30;99.90;;;;;;4934003;29;20428;-51
2022/09/14 12:46:19;;;;;;;12.30;5.82;;;27.30;99.90;;;;;;4909111;29;20095;-53
2022/09/14 12:48:49;;;;;;;19.17;7.88;;;27.30;99.90;;;;;;4933990;29;20035;-51
2022/09/14 12:51:31;;;;;;;13.85;6.15;;;27.30;99.90;;;;;;4933941;29;20385;-51
2022/09/14 12:54:18;;;;;;;15.55;7.60;;;27.30;99.90;;;;;;4934054;29;20024;-49
2022/09/14 12:56:50;;;;;;;;;;;27.30;99.90;;;;;;4934362;29;20128;-53
2022/09/14 12:59:54;;;;;;;12.52;5.15;;;27.40;99.90;;;;;;4933878;29;19906;-49
2022/09/14 13:02:51;;;;;;;13.15;4.18;;;27.40;99.90;;;;;;4875083;29;20080;-54
2022/09/14 13:05:23;;;;;;;7.60;2.00;;;27.40;99.90;;;;;;4875175;29;20493;-53